F/V La Sardane — FO4883 — position and weather

sailwx.info

Track history (hours):
 
Tides and Currents Weather Stations Pressure Air Temp Water Temp Dewpoint Dewpoint Depression Visibility Wind Speed Wind Dir Waves Ship Positions

F/V La Sardane

Last reported at 2018-May-17 23:43 UTC. Time now 2018-May-20 21:52 UTC.
Position N 47°49' W 004°23'.

Length 15 m.

Type: Fishing. MMSI: 227318010.

Date/timePositionNaut miles runAvg speedWind from/ knotsBaromVisibWave heightAir tempDewpointWater temp
2018-May-17 23:43N 47°49' W 004°23'2 8.3
2018-May-17 23:31N 47°49' W 004°25'4 8.4
2018-May-17 23:00N 47°51' W 004°31'6 8.8
2018-May-17 22:19N 47°53' W 004°39'3 8.8
2018-May-17 22:00N 47°55' W 004°43'4 8.8
2018-May-17 21:30N 47°57' W 004°49'2 4.1
2018-May-17 21:00N 47°58' W 004°51'0 0.9
2018-May-17 20:30N 47°58' W 004°51'0 1.0
2018-May-17 20:01N 47°59' W 004°51'4 7.0
2018-May-17 19:30N 47°57' W 004°47'14 7.8
2018-May-17 17:38N 47°50' W 004°28'4 4.7
2018-May-17 16:53N 47°49' W 004°23'0 0.0
2018-May-17 07:38N 47°49' W 004°23'  
2018-May-11 02:33N 47°49' W 004°23'0 0.0
2018-May-11 00:33N 47°49' W 004°23'0 0.0
2018-May-10 22:33N 47°49' W 004°23'0 0.0
2018-May-10 18:38N 47°49' W 004°23'0 0.0
2018-May-09 13:48N 47°49' W 004°23'0 0.0
2018-May-09 02:33N 47°49' W 004°23'2 0.4
2018-May-08 20:33N 47°51' W 004°23'3 1.4
2018-May-08 18:38N 47°49' W 004°23'  
Track history (hours):
 
Tides and Currents Weather Stations Pressure Air Temp Water Temp Dewpoint Dewpoint Depression Visibility Wind Speed Wind Dir Waves Ship Positions

F/V La Sardane

Last reported at 2018-May-17 23:43 UTC. Time now 2018-May-20 21:52 UTC.
Position N 47°49' W 004°23'.

Length 15 m.

Type: Fishing. MMSI: 227318010.

Date/timePositionNaut miles runAvg speedWind from/ knotsBaromVisibWave heightAir tempDewpointWater temp
2018-May-17 23:43N 47°49' W 004°23'2 8.3
2018-May-17 23:31N 47°49' W 004°25'4 8.4
2018-May-17 23:00N 47°51' W 004°31'6 8.8
2018-May-17 22:19N 47°53' W 004°39'3 8.8
2018-May-17 22:00N 47°55' W 004°43'4 8.8
2018-May-17 21:30N 47°57' W 004°49'2 4.1
2018-May-17 21:00N 47°58' W 004°51'0 0.9
2018-May-17 20:30N 47°58' W 004°51'0 1.0
2018-May-17 20:01N 47°59' W 004°51'4 7.0
2018-May-17 19:30N 47°57' W 004°47'14 7.8
2018-May-17 17:38N 47°50' W 004°28'4 4.7
2018-May-17 16:53N 47°49' W 004°23'0 0.0
2018-May-17 07:38N 47°49' W 004°23'  
2018-May-11 02:33N 47°49' W 004°23'0 0.0
2018-May-11 00:33N 47°49' W 004°23'0 0.0
2018-May-10 22:33N 47°49' W 004°23'0 0.0
2018-May-10 18:38N 47°49' W 004°23'0 0.0
2018-May-09 13:48N 47°49' W 004°23'0 0.0
2018-May-09 02:33N 47°49' W 004°23'2 0.4
2018-May-08 20:33N 47°51' W 004°23'3 1.4
2018-May-08 18:38N 47°49' W 004°23'  

Dump ship's entire track history